UAE6NM VRMM-VCBI
Flight info
| Callsign | UAE6NM |
|---|---|
| Flight time | 1h 15m |
| Altitude | 41000 |
| Route | HOKEY1A HOKEY M512 TELIG LALUM1A |
| Aircraft | A359/H-SDE2E3GHIJ3J4J5LM1ORWXY/LB1D1 |
Departure
| Time | 2026-04-27 01:14 |
|---|---|
| Airport | Velana International Airport (VRMM) |
Arrival
| Time | 2026-04-27 02:30 |
|---|---|
| Airport | Bandaranaike International Colombo Airport (VCBI) |
| Time | Latitude | Longitude | Altitude | Speed | Heading |
|---|---|---|---|---|---|
| 2026-04-27 00:55 | 4.18456 | 73.52803 | 20 ft | 0 kts | 229° |
| 2026-04-27 01:04 | 4.18544 | 73.52833 | 21 ft | 0 kts | 180° |
| 2026-04-27 01:08 | 4.18534 | 73.52832 | 20 ft | 4 kts | 181° |
| 2026-04-27 01:08 | 4.18496 | 73.52850 | 22 ft | 7 kts | 133° |
| 2026-04-27 01:08 | 4.18470 | 73.52904 | 20 ft | 9 kts | 136° |
| 2026-04-27 01:09 | 4.18395 | 73.52925 | 19 ft | 13 kts | 175° |
| 2026-04-27 01:09 | 4.18287 | 73.52929 | 19 ft | 18 kts | 179° |
| 2026-04-27 01:09 | 4.18214 | 73.52941 | 18 ft | 0 kts | 142° |
| 2026-04-27 01:09 | 4.18206 | 73.52951 | 18 ft | 4 kts | 126° |
| 2026-04-27 01:10 | 4.18200 | 73.52976 | 18 ft | 0 kts | 85° |
| 2026-04-27 01:13 | 4.18200 | 73.53025 | 19 ft | 14 kts | 91° |
| 2026-04-27 01:13 | 4.18232 | 73.53095 | 20 ft | 6 kts | 26° |
| 2026-04-27 01:13 | 4.18287 | 73.53102 | 20 ft | 16 kts | 360° |
| 2026-04-27 01:14 | 4.18570 | 73.53103 | 21 ft | 74 kts | 359° |
| 2026-04-27 01:14 | 4.19312 | 73.53100 | 21 ft | 137 kts | 359° |
| 2026-04-27 01:14 | 4.20423 | 73.53098 | 227 ft | 174 kts | 358° |
| 2026-04-27 01:14 | 4.21672 | 73.53079 | 817 ft | 181 kts | 357° |
| 2026-04-27 01:15 | 4.22942 | 73.53057 | 1605 ft | 188 kts | 358° |
| 2026-04-27 01:15 | 4.24344 | 73.53052 | 2009 ft | 213 kts | 359° |
| 2026-04-27 01:15 | 4.25873 | 73.53054 | 2619 ft | 228 kts | 359° |
| 2026-04-27 01:15 | 4.27546 | 73.53056 | 3096 ft | 251 kts | 359° |
| 2026-04-27 01:16 | 4.29324 | 73.53057 | 3816 ft | 259 kts | 360° |
| 2026-04-27 01:16 | 4.31144 | 73.53057 | 4389 ft | 265 kts | 360° |
| 2026-04-27 01:16 | 4.33005 | 73.53057 | 4932 ft | 270 kts | 360° |
| 2026-04-27 01:16 | 4.34891 | 73.53056 | 5507 ft | 273 kts | 360° |
| 2026-04-27 01:17 | 4.36794 | 73.53055 | 6090 ft | 275 kts | 0° |
| 2026-04-27 01:17 | 4.38709 | 73.53228 | 6618 ft | 278 kts | 14° |
| 2026-04-27 01:17 | 4.40459 | 73.54045 | 7152 ft | 280 kts | 37° |
| 2026-04-27 01:17 | 4.41721 | 73.55521 | 7683 ft | 282 kts | 62° |
| 2026-04-27 01:18 | 4.42265 | 73.57399 | 8223 ft | 284 kts | 84° |
| 2026-04-27 01:18 | 4.42322 | 73.59380 | 8805 ft | 285 kts | 90° |
| 2026-04-27 01:18 | 4.42293 | 73.61373 | 9364 ft | 288 kts | 90° |
| 2026-04-27 01:18 | 4.42265 | 73.63365 | 9896 ft | 290 kts | 90° |
| 2026-04-27 01:19 | 4.42247 | 73.65403 | 10298 ft | 298 kts | 90° |
| 2026-04-27 01:19 | 4.42235 | 73.67526 | 10526 ft | 311 kts | 89° |
| 2026-04-27 01:19 | 4.42230 | 73.69738 | 10745 ft | 323 kts | 89° |
| 2026-04-27 01:19 | 4.42228 | 73.72027 | 10973 ft | 335 kts | 89° |
| 2026-04-27 01:20 | 4.42223 | 73.74394 | 11273 ft | 342 kts | 90° |
| 2026-04-27 01:20 | 4.42337 | 73.76785 | 11677 ft | 346 kts | 82° |
| 2026-04-27 01:20 | 4.42783 | 73.79159 | 12111 ft | 348 kts | 77° |
| 2026-04-27 01:20 | 4.43321 | 73.81527 | 12548 ft | 350 kts | 77° |
| 2026-04-27 01:21 | 4.43876 | 73.83910 | 12997 ft | 352 kts | 77° |
| 2026-04-27 01:21 | 4.44431 | 73.86304 | 13436 ft | 354 kts | 77° |
| 2026-04-27 01:21 | 4.44983 | 73.88705 | 13841 ft | 355 kts | 77° |
| 2026-04-27 01:21 | 4.45538 | 73.91127 | 14216 ft | 358 kts | 77° |
| 2026-04-27 01:22 | 4.46094 | 73.93563 | 14571 ft | 360 kts | 77° |
| 2026-04-27 01:22 | 4.46655 | 73.96020 | 14934 ft | 362 kts | 77° |
| 2026-04-27 01:22 | 4.47217 | 73.98491 | 15308 ft | 365 kts | 77° |
| 2026-04-27 01:22 | 4.47783 | 74.00973 | 15686 ft | 367 kts | 77° |
| 2026-04-27 01:23 | 4.48351 | 74.03471 | 16057 ft | 369 kts | 77° |
| 2026-04-27 01:23 | 4.48922 | 74.05982 | 16424 ft | 371 kts | 77° |
| 2026-04-27 01:23 | 4.49498 | 74.08513 | 16767 ft | 374 kts | 77° |
| 2026-04-27 01:23 | 4.50077 | 74.11057 | 17123 ft | 376 kts | 77° |
| 2026-04-27 01:24 | 4.50660 | 74.13622 | 17475 ft | 378 kts | 77° |
| 2026-04-27 01:24 | 4.51245 | 74.16194 | 17828 ft | 380 kts | 77° |
| 2026-04-27 01:24 | 4.51835 | 74.18791 | 18166 ft | 383 kts | 77° |
| 2026-04-27 01:24 | 4.52426 | 74.21393 | 18472 ft | 384 kts | 77° |
| 2026-04-27 01:25 | 4.53022 | 74.24014 | 18790 ft | 386 kts | 77° |
| 2026-04-27 01:25 | 4.53618 | 74.26641 | 19104 ft | 387 kts | 77° |
| 2026-04-27 01:25 | 4.54218 | 74.29280 | 19424 ft | 389 kts | 77° |
| 2026-04-27 01:25 | 4.54927 | 74.31900 | 19714 ft | 391 kts | 73° |
| 2026-04-27 01:26 | 4.55766 | 74.34497 | 20020 ft | 393 kts | 72° |
| 2026-04-27 01:26 | 4.56616 | 74.37103 | 20330 ft | 394 kts | 72° |
| 2026-04-27 01:26 | 4.57456 | 74.39723 | 20643 ft | 396 kts | 72° |
| 2026-04-27 01:26 | 4.58288 | 74.42357 | 20937 ft | 397 kts | 73° |
| 2026-04-27 01:27 | 4.59117 | 74.45004 | 21240 ft | 399 kts | 73° |
| 2026-04-27 01:27 | 4.59945 | 74.47659 | 21536 ft | 400 kts | 73° |
| 2026-04-27 01:27 | 4.60776 | 74.50329 | 21826 ft | 402 kts | 73° |
| 2026-04-27 01:27 | 4.61609 | 74.53010 | 22118 ft | 404 kts | 73° |
| 2026-04-27 01:28 | 4.62444 | 74.55701 | 22405 ft | 405 kts | 73° |
| 2026-04-27 01:28 | 4.63281 | 74.58401 | 22698 ft | 407 kts | 73° |
| 2026-04-27 01:28 | 4.64123 | 74.61115 | 22968 ft | 408 kts | 73° |
| 2026-04-27 01:28 | 4.64967 | 74.63839 | 23241 ft | 410 kts | 73° |
| 2026-04-27 01:29 | 4.65814 | 74.66571 | 23501 ft | 411 kts | 73° |
| 2026-04-27 01:29 | 4.66653 | 74.69279 | 23721 ft | 413 kts | 73° |
| 2026-04-27 01:29 | 4.67505 | 74.72030 | 23924 ft | 415 kts | 73° |
| 2026-04-27 01:29 | 4.68362 | 74.74795 | 24139 ft | 416 kts | 73° |
| 2026-04-27 01:30 | 4.69221 | 74.77571 | 24363 ft | 417 kts | 73° |
| 2026-04-27 01:30 | 4.70083 | 74.80355 | 24576 ft | 419 kts | 73° |
| 2026-04-27 01:30 | 4.70948 | 74.83146 | 24786 ft | 420 kts | 73° |
| 2026-04-27 01:30 | 4.71815 | 74.85948 | 24997 ft | 422 kts | 73° |
| 2026-04-27 01:31 | 4.72686 | 74.88762 | 25206 ft | 423 kts | 74° |
| 2026-04-27 01:31 | 4.73559 | 74.91583 | 25407 ft | 424 kts | 74° |
| 2026-04-27 01:31 | 4.74434 | 74.94409 | 25627 ft | 426 kts | 74° |
| 2026-04-27 01:31 | 4.75314 | 74.97254 | 25843 ft | 427 kts | 74° |
| 2026-04-27 01:32 | 4.76194 | 75.00100 | 26062 ft | 429 kts | 74° |
| 2026-04-27 01:32 | 4.77076 | 75.02952 | 26276 ft | 430 kts | 74° |
| 2026-04-27 01:32 | 4.77964 | 75.05825 | 26492 ft | 431 kts | 74° |
| 2026-04-27 01:32 | 4.78854 | 75.08703 | 26716 ft | 433 kts | 74° |
| 2026-04-27 01:33 | 4.79747 | 75.11590 | 26935 ft | 434 kts | 74° |
| 2026-04-27 01:33 | 4.80641 | 75.14489 | 27150 ft | 436 kts | 74° |
| 2026-04-27 01:33 | 4.81540 | 75.17398 | 27373 ft | 438 kts | 74° |
| 2026-04-27 01:33 | 4.82442 | 75.20307 | 27602 ft | 439 kts | 74° |
| 2026-04-27 01:34 | 4.83351 | 75.23241 | 27814 ft | 441 kts | 74° |
| 2026-04-27 01:34 | 4.84263 | 75.26187 | 28046 ft | 442 kts | 74° |
| 2026-04-27 01:34 | 4.85175 | 75.29134 | 28270 ft | 444 kts | 74° |
| 2026-04-27 01:34 | 4.86093 | 75.32101 | 28491 ft | 446 kts | 75° |
| 2026-04-27 01:35 | 4.87012 | 75.35072 | 28716 ft | 447 kts | 75° |
| 2026-04-27 01:35 | 4.87936 | 75.38059 | 28940 ft | 449 kts | 75° |
| 2026-04-27 01:35 | 4.88863 | 75.41056 | 29172 ft | 451 kts | 75° |
| 2026-04-27 01:35 | 4.89792 | 75.44062 | 29393 ft | 453 kts | 75° |
| 2026-04-27 01:36 | 4.90726 | 75.47084 | 29621 ft | 455 kts | 75° |
| 2026-04-27 01:36 | 4.91662 | 75.50115 | 29850 ft | 456 kts | 75° |
| 2026-04-27 01:36 | 4.92603 | 75.53160 | 30057 ft | 458 kts | 75° |
| 2026-04-27 01:36 | 4.93547 | 75.56215 | 30256 ft | 460 kts | 75° |
| 2026-04-27 01:37 | 4.94497 | 75.59292 | 30481 ft | 461 kts | 75° |
| 2026-04-27 01:37 | 4.95446 | 75.62365 | 30711 ft | 463 kts | 75° |
| 2026-04-27 01:37 | 4.96401 | 75.65455 | 30918 ft | 464 kts | 75° |
| 2026-04-27 01:37 | 4.97355 | 75.68547 | 31155 ft | 466 kts | 75° |
| 2026-04-27 01:38 | 4.98312 | 75.71663 | 31393 ft | 467 kts | 75° |
| 2026-04-27 01:38 | 4.99269 | 75.74779 | 31617 ft | 469 kts | 75° |
| 2026-04-27 01:38 | 5.00229 | 75.77902 | 31844 ft | 470 kts | 75° |
| 2026-04-27 01:38 | 5.01192 | 75.81035 | 32069 ft | 472 kts | 75° |
| 2026-04-27 01:39 | 5.02161 | 75.84189 | 32290 ft | 473 kts | 75° |
| 2026-04-27 01:39 | 5.03131 | 75.87345 | 32503 ft | 474 kts | 75° |
| 2026-04-27 01:39 | 5.04104 | 75.90513 | 32726 ft | 476 kts | 75° |
| 2026-04-27 01:39 | 5.05080 | 75.93690 | 32928 ft | 477 kts | 75° |
| 2026-04-27 01:40 | 5.06057 | 75.96872 | 33139 ft | 478 kts | 75° |
| 2026-04-27 01:40 | 5.07038 | 76.00066 | 33347 ft | 480 kts | 75° |
| 2026-04-27 01:40 | 5.08020 | 76.03266 | 33551 ft | 481 kts | 75° |
| 2026-04-27 01:40 | 5.08992 | 76.06431 | 33763 ft | 482 kts | 75° |
| 2026-04-27 01:41 | 5.09996 | 76.09703 | 33945 ft | 484 kts | 75° |
| 2026-04-27 01:41 | 5.10986 | 76.12930 | 34110 ft | 485 kts | 75° |
| 2026-04-27 01:41 | 5.11968 | 76.16128 | 34265 ft | 487 kts | 75° |
| 2026-04-27 01:41 | 5.12965 | 76.19371 | 34436 ft | 488 kts | 75° |
| 2026-04-27 01:42 | 5.13968 | 76.22634 | 34636 ft | 489 kts | 75° |
| 2026-04-27 01:42 | 5.14968 | 76.25886 | 34895 ft | 488 kts | 75° |
| 2026-04-27 01:42 | 5.15981 | 76.29182 | 35156 ft | 488 kts | 75° |
| 2026-04-27 01:42 | 5.16967 | 76.32390 | 35413 ft | 487 kts | 75° |
| 2026-04-27 01:43 | 5.17978 | 76.35684 | 35667 ft | 487 kts | 75° |
| 2026-04-27 01:43 | 5.18960 | 76.38881 | 35922 ft | 487 kts | 75° |
| 2026-04-27 01:43 | 5.19956 | 76.42127 | 36183 ft | 486 kts | 75° |
| 2026-04-27 01:43 | 5.20951 | 76.45368 | 36449 ft | 486 kts | 75° |
| 2026-04-27 01:44 | 5.21946 | 76.48610 | 36718 ft | 485 kts | 75° |
| 2026-04-27 01:44 | 5.22936 | 76.51838 | 36989 ft | 485 kts | 75° |
| 2026-04-27 01:44 | 5.23927 | 76.55069 | 37265 ft | 484 kts | 75° |
| 2026-04-27 01:44 | 5.24914 | 76.58286 | 37547 ft | 484 kts | 76° |
| 2026-04-27 01:45 | 5.25905 | 76.61520 | 37824 ft | 483 kts | 76° |
| 2026-04-27 01:45 | 5.26893 | 76.64744 | 38084 ft | 483 kts | 76° |
| 2026-04-27 01:45 | 5.27879 | 76.67960 | 38377 ft | 482 kts | 76° |
| 2026-04-27 01:45 | 5.28861 | 76.71165 | 38631 ft | 481 kts | 76° |
| 2026-04-27 01:46 | 5.29845 | 76.74377 | 38832 ft | 481 kts | 76° |
| 2026-04-27 01:46 | 5.30826 | 76.77581 | 39033 ft | 481 kts | 76° |
| 2026-04-27 01:46 | 5.31808 | 76.80787 | 39232 ft | 480 kts | 76° |
| 2026-04-27 01:46 | 5.32788 | 76.83986 | 39419 ft | 480 kts | 76° |
| 2026-04-27 01:47 | 5.33769 | 76.87192 | 39628 ft | 480 kts | 76° |
| 2026-04-27 01:47 | 5.34750 | 76.90397 | 39814 ft | 480 kts | 76° |
| 2026-04-27 01:47 | 5.35729 | 76.93598 | 40004 ft | 480 kts | 76° |
| 2026-04-27 01:47 | 5.36707 | 76.96793 | 40189 ft | 479 kts | 75° |
| 2026-04-27 01:48 | 5.37684 | 76.99989 | 40372 ft | 479 kts | 75° |
| 2026-04-27 01:48 | 5.38663 | 77.03191 | 40542 ft | 479 kts | 75° |
| 2026-04-27 01:48 | 5.39636 | 77.06373 | 40716 ft | 479 kts | 75° |
| 2026-04-27 01:48 | 5.40617 | 77.09582 | 40843 ft | 480 kts | 75° |
| 2026-04-27 01:49 | 5.41555 | 77.12653 | 40868 ft | 483 kts | 75° |
| 2026-04-27 01:49 | 5.42993 | 77.17360 | 40865 ft | 483 kts | 75° |
| 2026-04-27 01:50 | 5.44957 | 77.23788 | 40866 ft | 482 kts | 75° |
| 2026-04-27 01:50 | 5.46798 | 77.29821 | 40862 ft | 482 kts | 75° |
| 2026-04-27 01:51 | 5.48765 | 77.36265 | 40865 ft | 482 kts | 75° |
| 2026-04-27 01:51 | 5.50726 | 77.42694 | 40866 ft | 482 kts | 75° |
| 2026-04-27 01:52 | 5.52692 | 77.49140 | 40866 ft | 483 kts | 75° |
| 2026-04-27 01:52 | 5.54655 | 77.55584 | 40870 ft | 483 kts | 75° |
| 2026-04-27 01:53 | 5.56619 | 77.62030 | 40869 ft | 483 kts | 75° |
| 2026-04-27 01:53 | 5.58579 | 77.68463 | 40866 ft | 483 kts | 75° |
| 2026-04-27 01:54 | 5.60542 | 77.74912 | 40865 ft | 482 kts | 75° |
| 2026-04-27 01:54 | 5.62488 | 77.81306 | 40394 ft | 478 kts | 74° |
| 2026-04-27 01:54 | 5.63452 | 77.84479 | 39721 ft | 480 kts | 74° |
| 2026-04-27 01:55 | 5.64439 | 77.87723 | 39063 ft | 481 kts | 74° |
| 2026-04-27 01:55 | 5.65416 | 77.90939 | 38527 ft | 480 kts | 74° |
| 2026-04-27 01:55 | 5.66373 | 77.94086 | 38022 ft | 476 kts | 74° |
| 2026-04-27 01:55 | 5.67343 | 77.97251 | 37568 ft | 471 kts | 73° |
| 2026-04-27 01:56 | 5.70473 | 78.02979 | 36438 ft | 471 kts | 54° |
| 2026-04-27 01:56 | 5.72509 | 78.05554 | 35916 ft | 470 kts | 53° |
| 2026-04-27 01:56 | 5.74553 | 78.08101 | 35459 ft | 467 kts | 53° |
| 2026-04-27 01:57 | 5.76583 | 78.10623 | 35210 ft | 459 kts | 53° |
| 2026-04-27 01:57 | 5.78567 | 78.13092 | 34969 ft | 450 kts | 53° |
| 2026-04-27 01:57 | 5.80498 | 78.15505 | 34287 ft | 438 kts | 53° |
| 2026-04-27 01:57 | 5.82395 | 78.17884 | 33336 ft | 434 kts | 53° |
| 2026-04-27 01:58 | 5.84268 | 78.20237 | 32418 ft | 429 kts | 53° |
| 2026-04-27 01:58 | 5.86114 | 78.22559 | 31564 ft | 422 kts | 53° |
| 2026-04-27 01:58 | 5.87914 | 78.24822 | 31067 ft | 407 kts | 53° |
| 2026-04-27 01:58 | 5.89670 | 78.27032 | 30727 ft | 405 kts | 53° |
| 2026-04-27 01:59 | 5.91431 | 78.29250 | 30374 ft | 404 kts | 53° |
| 2026-04-27 01:59 | 5.93177 | 78.31448 | 30037 ft | 402 kts | 53° |
| 2026-04-27 01:59 | 5.94917 | 78.33639 | 29673 ft | 400 kts | 53° |
| 2026-04-27 01:59 | 5.96644 | 78.35814 | 29327 ft | 397 kts | 52° |
| 2026-04-27 02:00 | 5.98362 | 78.37977 | 29011 ft | 395 kts | 52° |
| 2026-04-27 02:00 | 6.00068 | 78.40126 | 28675 ft | 393 kts | 52° |
| 2026-04-27 02:00 | 6.01767 | 78.42266 | 28344 ft | 390 kts | 52° |
| 2026-04-27 02:00 | 6.03456 | 78.44393 | 28020 ft | 388 kts | 52° |
| 2026-04-27 02:01 | 6.05140 | 78.46514 | 27698 ft | 386 kts | 52° |
| 2026-04-27 02:01 | 6.06810 | 78.48620 | 27383 ft | 387 kts | 52° |
| 2026-04-27 02:01 | 6.08482 | 78.50726 | 27102 ft | 385 kts | 52° |
| 2026-04-27 02:01 | 6.10145 | 78.52822 | 26744 ft | 382 kts | 52° |
| 2026-04-27 02:02 | 6.11792 | 78.54897 | 26413 ft | 378 kts | 52° |
| 2026-04-27 02:02 | 6.13453 | 78.56929 | 26096 ft | 375 kts | 48° |
| 2026-04-27 02:02 | 6.15374 | 78.58696 | 25778 ft | 374 kts | 40° |
| 2026-04-27 02:02 | 6.17413 | 78.60315 | 25470 ft | 373 kts | 39° |
| 2026-04-27 02:03 | 6.19460 | 78.61905 | 25148 ft | 371 kts | 39° |
| 2026-04-27 02:03 | 6.21500 | 78.63487 | 24855 ft | 369 kts | 39° |
| 2026-04-27 02:03 | 6.23522 | 78.65060 | 24547 ft | 367 kts | 39° |
| 2026-04-27 02:03 | 6.25534 | 78.66626 | 24231 ft | 365 kts | 39° |
| 2026-04-27 02:04 | 6.27534 | 78.68185 | 23938 ft | 363 kts | 39° |
| 2026-04-27 02:04 | 6.29527 | 78.69739 | 23638 ft | 361 kts | 39° |
| 2026-04-27 02:04 | 6.31506 | 78.71283 | 23291 ft | 359 kts | 39° |
| 2026-04-27 02:04 | 6.33472 | 78.72817 | 22991 ft | 357 kts | 39° |
| 2026-04-27 02:05 | 6.35430 | 78.74345 | 22705 ft | 355 kts | 39° |
| 2026-04-27 02:05 | 6.37349 | 78.75842 | 22399 ft | 354 kts | 39° |
| 2026-04-27 02:05 | 6.39270 | 78.77342 | 22111 ft | 352 kts | 39° |
| 2026-04-27 02:05 | 6.41163 | 78.78896 | 21812 ft | 350 kts | 44° |
| 2026-04-27 02:06 | 6.42784 | 78.80666 | 21511 ft | 348 kts | 50° |
| 2026-04-27 02:06 | 6.44317 | 78.82542 | 21227 ft | 346 kts | 51° |
| 2026-04-27 02:06 | 6.45848 | 78.84450 | 20936 ft | 345 kts | 51° |
| 2026-04-27 02:06 | 6.47349 | 78.86323 | 20648 ft | 344 kts | 51° |
| 2026-04-27 02:07 | 6.48846 | 78.88190 | 20359 ft | 342 kts | 51° |
| 2026-04-27 02:07 | 6.50333 | 78.90045 | 20082 ft | 341 kts | 51° |
| 2026-04-27 02:07 | 6.51816 | 78.91893 | 19795 ft | 339 kts | 51° |
| 2026-04-27 02:07 | 6.53280 | 78.93717 | 19511 ft | 338 kts | 51° |
| 2026-04-27 02:08 | 6.54753 | 78.95552 | 19223 ft | 336 kts | 51° |
| 2026-04-27 02:08 | 6.56218 | 78.97377 | 18955 ft | 335 kts | 51° |
| 2026-04-27 02:08 | 6.57680 | 78.99199 | 18678 ft | 334 kts | 51° |
| 2026-04-27 02:08 | 6.59134 | 79.01010 | 18398 ft | 333 kts | 51° |
| 2026-04-27 02:09 | 6.60584 | 79.02817 | 18116 ft | 331 kts | 51° |
| 2026-04-27 02:09 | 6.62028 | 79.04617 | 17819 ft | 330 kts | 51° |
| 2026-04-27 02:09 | 6.63460 | 79.06415 | 17515 ft | 328 kts | 52° |
| 2026-04-27 02:09 | 6.64866 | 79.08207 | 17245 ft | 326 kts | 52° |
| 2026-04-27 02:10 | 6.66264 | 79.09995 | 16988 ft | 324 kts | 52° |
| 2026-04-27 02:10 | 6.67656 | 79.11772 | 16710 ft | 322 kts | 52° |
| 2026-04-27 02:10 | 6.69040 | 79.13538 | 16444 ft | 320 kts | 52° |
| 2026-04-27 02:10 | 6.70416 | 79.15294 | 16178 ft | 319 kts | 52° |
| 2026-04-27 02:11 | 6.71785 | 79.17040 | 15909 ft | 317 kts | 52° |
| 2026-04-27 02:11 | 6.73148 | 79.18777 | 15644 ft | 315 kts | 52° |
| 2026-04-27 02:11 | 6.74501 | 79.20503 | 15379 ft | 314 kts | 52° |
| 2026-04-27 02:11 | 6.75850 | 79.22224 | 15121 ft | 312 kts | 52° |
| 2026-04-27 02:12 | 6.77189 | 79.23931 | 14862 ft | 310 kts | 52° |
| 2026-04-27 02:12 | 6.78522 | 79.25632 | 14599 ft | 309 kts | 52° |
| 2026-04-27 02:12 | 6.79851 | 79.27328 | 14343 ft | 307 kts | 52° |
| 2026-04-27 02:12 | 6.81172 | 79.29013 | 14092 ft | 306 kts | 52° |
| 2026-04-27 02:13 | 6.82483 | 79.30687 | 13836 ft | 304 kts | 52° |
| 2026-04-27 02:13 | 6.83790 | 79.32355 | 13568 ft | 303 kts | 52° |
| 2026-04-27 02:13 | 6.85091 | 79.34015 | 13300 ft | 301 kts | 52° |
| 2026-04-27 02:13 | 6.86383 | 79.35665 | 13057 ft | 300 kts | 52° |
| 2026-04-27 02:14 | 6.87676 | 79.37315 | 12801 ft | 300 kts | 52° |
| 2026-04-27 02:14 | 6.88965 | 79.38961 | 12537 ft | 299 kts | 52° |
| 2026-04-27 02:14 | 6.90247 | 79.40598 | 12296 ft | 298 kts | 52° |
| 2026-04-27 02:14 | 6.91528 | 79.42234 | 12046 ft | 297 kts | 52° |
| 2026-04-27 02:15 | 6.92805 | 79.43863 | 11797 ft | 296 kts | 52° |
| 2026-04-27 02:15 | 6.94206 | 79.45380 | 11539 ft | 296 kts | 44° |
| 2026-04-27 02:15 | 6.95786 | 79.46706 | 11360 ft | 296 kts | 40° |
| 2026-04-27 02:15 | 6.97402 | 79.47992 | 11162 ft | 295 kts | 40° |
| 2026-04-27 02:16 | 6.99016 | 79.49265 | 10922 ft | 294 kts | 40° |
| 2026-04-27 02:16 | 7.00619 | 79.50530 | 10682 ft | 293 kts | 40° |
| 2026-04-27 02:16 | 7.02226 | 79.51799 | 10431 ft | 292 kts | 40° |
| 2026-04-27 02:16 | 7.03827 | 79.53064 | 10187 ft | 292 kts | 40° |
| 2026-04-27 02:17 | 7.05420 | 79.54324 | 9945 ft | 291 kts | 40° |
| 2026-04-27 02:17 | 7.07007 | 79.55579 | 9706 ft | 290 kts | 40° |
| 2026-04-27 02:17 | 7.08589 | 79.56830 | 9440 ft | 289 kts | 40° |
| 2026-04-27 02:17 | 7.10169 | 79.58080 | 9192 ft | 288 kts | 40° |
| 2026-04-27 02:18 | 7.11743 | 79.59325 | 8951 ft | 288 kts | 39° |
| 2026-04-27 02:18 | 7.13313 | 79.60567 | 8707 ft | 287 kts | 39° |
| 2026-04-27 02:18 | 7.14863 | 79.61794 | 8473 ft | 286 kts | 39° |
| 2026-04-27 02:18 | 7.16445 | 79.63046 | 8230 ft | 285 kts | 39° |
| 2026-04-27 02:19 | 7.18001 | 79.64277 | 7995 ft | 284 kts | 39° |
| 2026-04-27 02:19 | 7.19557 | 79.65509 | 7754 ft | 284 kts | 39° |
| 2026-04-27 02:19 | 7.21103 | 79.66733 | 7516 ft | 283 kts | 39° |
| 2026-04-27 02:19 | 7.22642 | 79.67951 | 7283 ft | 282 kts | 39° |
| 2026-04-27 02:20 | 7.24187 | 79.69174 | 7049 ft | 281 kts | 39° |
| 2026-04-27 02:20 | 7.25699 | 79.70376 | 6809 ft | 280 kts | 39° |
| 2026-04-27 02:20 | 7.27224 | 79.71589 | 6567 ft | 279 kts | 39° |
| 2026-04-27 02:20 | 7.28747 | 79.72799 | 6342 ft | 278 kts | 39° |
| 2026-04-27 02:21 | 7.30265 | 79.74006 | 6098 ft | 277 kts | 39° |
| 2026-04-27 02:21 | 7.31768 | 79.75204 | 5919 ft | 277 kts | 39° |
| 2026-04-27 02:21 | 7.33281 | 79.76403 | 5564 ft | 275 kts | 39° |
| 2026-04-27 02:21 | 7.34788 | 79.77590 | 5256 ft | 274 kts | 39° |
| 2026-04-27 02:22 | 7.36289 | 79.78772 | 4978 ft | 274 kts | 39° |
| 2026-04-27 02:22 | 7.37785 | 79.79953 | 4691 ft | 273 kts | 39° |
| 2026-04-27 02:22 | 7.39228 | 79.81144 | 4477 ft | 264 kts | 44° |
| 2026-04-27 02:22 | 7.40221 | 79.82649 | 4247 ft | 256 kts | 72° |
| 2026-04-27 02:23 | 7.40332 | 79.84384 | 4042 ft | 247 kts | 102° |
| 2026-04-27 02:23 | 7.39651 | 79.85923 | 3878 ft | 238 kts | 123° |
| 2026-04-27 02:23 | 7.38722 | 79.87257 | 3724 ft | 226 kts | 126° |
| 2026-04-27 02:23 | 7.37824 | 79.88486 | 3529 ft | 209 kts | 126° |
| 2026-04-27 02:24 | 7.37001 | 79.89614 | 3375 ft | 191 kts | 126° |
| 2026-04-27 02:24 | 7.36238 | 79.90671 | 3072 ft | 184 kts | 126° |
| 2026-04-27 02:24 | 7.35531 | 79.91725 | 2723 ft | 180 kts | 123° |
| 2026-04-27 02:24 | 7.34895 | 79.92790 | 2446 ft | 174 kts | 122° |
| 2026-04-27 02:25 | 7.34314 | 79.93810 | 2312 ft | 162 kts | 121° |
| 2026-04-27 02:25 | 7.33760 | 79.94793 | 2314 ft | 163 kts | 121° |
| 2026-04-27 02:25 | 7.33199 | 79.95788 | 2316 ft | 164 kts | 121° |
| 2026-04-27 02:25 | 7.32631 | 79.96779 | 2314 ft | 164 kts | 122° |
| 2026-04-27 02:26 | 7.31851 | 79.97596 | 2332 ft | 162 kts | 149° |
| 2026-04-27 02:26 | 7.30774 | 79.97701 | 2343 ft | 159 kts | 195° |
| 2026-04-27 02:26 | 7.29737 | 79.97308 | 2341 ft | 159 kts | 210° |
| 2026-04-27 02:26 | 7.28824 | 79.96685 | 2343 ft | 159 kts | 216° |
| 2026-04-27 02:27 | 7.27948 | 79.96006 | 2326 ft | 159 kts | 218° |
| 2026-04-27 02:27 | 7.27070 | 79.95312 | 2032 ft | 161 kts | 218° |
| 2026-04-27 02:27 | 7.26198 | 79.94620 | 1731 ft | 157 kts | 218° |
| 2026-04-27 02:27 | 7.25345 | 79.93942 | 1461 ft | 156 kts | 218° |
| 2026-04-27 02:28 | 7.24496 | 79.93266 | 1210 ft | 155 kts | 218° |
| 2026-04-27 02:28 | 7.23649 | 79.92591 | 998 ft | 156 kts | 218° |
| 2026-04-27 02:28 | 7.22797 | 79.91911 | 761 ft | 155 kts | 218° |
| 2026-04-27 02:28 | 7.21929 | 79.91264 | 575 ft | 156 kts | 217° |
| 2026-04-27 02:29 | 7.21085 | 79.90616 | 415 ft | 148 kts | 217° |
| 2026-04-27 02:29 | 7.20267 | 79.90006 | 296 ft | 146 kts | 215° |
| 2026-04-27 02:29 | 7.19449 | 79.89399 | 126 ft | 146 kts | 214° |
| 2026-04-27 02:29 | 7.18660 | 79.88802 | 46 ft | 145 kts | 216° |
| 2026-04-27 02:30 | 7.17777 | 79.88136 | 44 ft | 139 kts | 218° |
| 2026-04-27 02:30 | 7.17250 | 79.87725 | 41 ft | 52 kts | 219° |
| 2026-04-27 02:30 | 7.17163 | 79.87654 | 41 ft | 0 kts | 215° |
| 2026-04-27 02:30 | 7.17098 | 79.87607 | 41 ft | 23 kts | 216° |
| 2026-04-27 02:31 | 7.16974 | 79.87516 | 42 ft | 0 kts | 212° |
| 2026-04-27 02:31 | 7.16973 | 79.87516 | 42 ft | 3 kts | 212° |
| 2026-04-27 02:31 | 7.16901 | 79.87511 | 41 ft | 9 kts | 149° |
| 2026-04-27 02:31 | 7.16875 | 79.87543 | 41 ft | 7 kts | 125° |
| 2026-04-27 02:32 | 7.16854 | 79.87639 | 41 ft | 21 kts | 61° |
| 2026-04-27 02:32 | 7.16967 | 79.87734 | 40 ft | 21 kts | 37° |
| 2026-04-27 02:32 | 7.17087 | 79.87828 | 40 ft | 22 kts | 38° |
| 2026-04-27 02:32 | 7.17212 | 79.87926 | 40 ft | 23 kts | 38° |
| 2026-04-27 02:33 | 7.17342 | 79.88027 | 41 ft | 24 kts | 38° |
| 2026-04-27 02:33 | 7.17466 | 79.88119 | 41 ft | 22 kts | 38° |
| 2026-04-27 02:33 | 7.17573 | 79.88198 | 41 ft | 22 kts | 37° |
| 2026-04-27 02:33 | 7.17600 | 79.88303 | 40 ft | 11 kts | 127° |
| 2026-04-27 02:34 | 7.17557 | 79.88368 | 41 ft | 7 kts | 104° |
| 2026-04-27 02:34 | 7.17575 | 79.88401 | 41 ft | 5 kts | 39° |
| 2026-04-27 02:34 | 7.17598 | 79.88417 | 41 ft | 0 kts | 35° |